createdAt,value
2018-01-19T00:00:04.569Z,6.40
2018-01-19T00:02:32.109Z,8.33
2018-01-19T00:04:59.634Z,7.10
2018-01-19T00:07:27.949Z,7.73
2018-01-19T00:09:55.469Z,7.70
2018-01-19T00:12:23.179Z,7.77
2018-01-19T00:14:50.776Z,8.10
2018-01-19T00:17:19.120Z,7.73
2018-01-19T00:19:46.659Z,7.27
2018-01-19T00:22:14.189Z,6.82
2018-01-19T00:24:42.498Z,7.53
2018-01-19T00:27:10.019Z,7.87
2018-01-19T00:29:37.543Z,7.00
2018-01-19T00:32:05.057Z,7.37
2018-01-19T00:34:33.369Z,7.90
2018-01-19T00:37:00.893Z,8.53
2018-01-19T00:39:28.428Z,7.80
2018-01-19T00:41:56.702Z,7.50
2018-01-19T00:44:24.374Z,7.43
2018-01-19T00:46:51.909Z,8.03
2018-01-19T00:49:19.432Z,8.10
2018-01-19T00:51:46.977Z,7.90
2018-01-19T00:54:14.501Z,8.17
2018-01-19T00:56:42.825Z,7.60
2018-01-19T00:59:10.560Z,8.57
2018-01-19T01:01:38.108Z,9.10
2018-01-19T01:04:05.616Z,7.70
2018-01-19T01:06:33.153Z,5.97
2018-01-19T01:09:01.485Z,11.00
2018-01-19T01:11:29.316Z,11.20
2018-01-19T01:13:56.823Z,10.77
2018-01-19T01:16:25.187Z,11.55
2018-01-19T01:18:52.719Z,11.00
2018-01-19T01:21:20.260Z,12.33
2018-01-19T01:23:48.545Z,12.07
2018-01-19T01:26:16.081Z,11.10
2018-01-19T01:28:43.641Z,12.97
2018-01-19T01:31:11.171Z,10.73
2018-01-19T01:33:38.692Z,12.20
2018-01-19T01:36:07.003Z,10.87
2018-01-19T01:38:34.520Z,11.82
2018-01-19T01:41:02.057Z,11.90
2018-01-19T01:43:30.335Z,11.25
2018-01-19T01:45:57.859Z,11.10
2018-01-19T01:48:26.196Z,10.57
2018-01-19T01:50:53.889Z,9.50
2018-01-19T01:53:21.458Z,10.73
2018-01-19T01:55:48.981Z,11.37
2018-01-19T01:58:16.558Z,11.80
2018-01-19T02:00:44.085Z,11.83
2018-01-19T02:03:11.621Z,10.53
2018-01-19T02:05:39.161Z,10.23
2018-01-19T02:08:06.688Z,9.97
2018-01-19T02:10:34.260Z,10.73
2018-01-19T02:13:01.783Z,11.67
2018-01-19T02:15:29.307Z,11.10
2018-01-19T02:17:56.869Z,12.07
2018-01-19T02:20:25.809Z,11.80
2018-01-19T02:22:53.528Z,10.80
2018-01-19T02:25:21.708Z,11.53
2018-01-19T02:27:50.411Z,10.25
2018-01-19T02:30:18.684Z,9.77
2018-01-19T02:32:46.220Z,9.23
2018-01-19T02:35:14.512Z,9.60
2018-01-19T02:37:42.047Z,8.90
2018-01-19T02:40:09.585Z,8.90
2018-01-19T02:42:37.113Z,9.30
2018-01-19T02:45:04.652Z,9.30
2018-01-19T02:47:32.941Z,7.70
2018-01-19T02:50:00.603Z,9.20
2018-01-19T02:52:28.121Z,7.30
2018-01-19T02:54:55.671Z,8.00
2018-01-19T02:57:23.183Z,7.30
2018-01-19T02:59:51.720Z,6.60
2018-01-19T03:02:19.340Z,7.17
2018-01-19T03:04:46.902Z,7.37
2018-01-19T03:07:14.412Z,6.70
2018-01-19T03:09:41.983Z,6.27
2018-01-19T03:12:09.507Z,7.28
2018-01-19T03:14:37.025Z,7.12
2018-01-19T03:17:05.318Z,8.10
2018-01-19T03:19:32.841Z,7.27
2018-01-19T03:22:00.379Z,7.30
2018-01-19T03:24:28.653Z,7.23
2018-01-19T03:26:56.181Z,7.60
2018-01-19T03:29:24.605Z,7.37
2018-01-19T03:31:52.175Z,7.67
2018-01-19T03:34:19.692Z,6.90
2018-01-19T03:36:47.220Z,7.70
2018-01-19T03:39:14.727Z,6.40
2018-01-19T03:41:42.246Z,5.70
2018-01-19T03:44:09.755Z,6.83
2018-01-19T03:46:37.316Z,7.07
2018-01-19T03:49:04.841Z,7.07
2018-01-19T03:51:32.381Z,5.80
2018-01-19T03:53:59.902Z,6.60
2018-01-19T03:56:27.845Z,6.22
2018-01-19T03:58:55.384Z,7.10
2018-01-19T04:01:23.675Z,6.40
2018-01-19T04:03:51.333Z,6.80
2018-01-19T04:06:18.836Z,6.18
2018-01-19T04:08:47.145Z,6.60
2018-01-19T04:11:14.655Z,6.23
2018-01-19T04:13:42.202Z,6.50
2018-01-19T04:16:09.719Z,6.00
2018-01-19T04:18:38.040Z,6.87
2018-01-19T04:21:05.549Z,6.67
2018-01-19T04:23:33.086Z,6.10
2018-01-19T04:26:01.363Z,7.27
2018-01-19T04:28:28.929Z,7.63
2018-01-19T04:30:56.435Z,7.40
2018-01-19T04:33:23.971Z,6.30
2018-01-19T04:35:52.551Z,7.07
2018-01-19T04:38:20.083Z,7.20
2018-01-19T04:40:48.387Z,6.70
2018-01-19T04:43:15.915Z,6.93
2018-01-19T04:45:43.445Z,7.33
2018-01-19T04:48:10.955Z,5.83
2018-01-19T04:50:39.998Z,7.67
2018-01-19T04:53:07.520Z,6.80
2018-01-19T04:55:35.068Z,7.75
2018-01-19T04:58:02.579Z,6.73
2018-01-19T05:00:30.888Z,7.40
2018-01-19T05:02:58.442Z,7.53
2018-01-19T05:05:25.978Z,7.17
2018-01-19T05:07:53.501Z,7.90
2018-01-19T05:10:21.052Z,8.27
2018-01-19T05:12:48.579Z,8.00
2018-01-19T05:15:17.037Z,7.60
2018-01-19T05:17:45.319Z,7.53
2018-01-19T05:20:12.847Z,8.00
2018-01-19T05:22:40.393Z,8.65
2018-01-19T05:25:08.694Z,9.20
2018-01-19T05:27:36.328Z,9.13
2018-01-19T05:30:03.859Z,8.30
2018-01-19T05:32:31.401Z,8.80
2018-01-19T05:34:58.941Z,8.70
2018-01-19T05:37:26.867Z,9.20
2018-01-19T05:39:55.339Z,7.87
2018-01-19T05:42:23.839Z,8.50
2018-01-19T05:44:51.394Z,9.33
2018-01-19T05:47:18.937Z,10.23
2018-01-19T05:49:46.464Z,8.05
2018-01-19T05:52:13.991Z,7.90
2018-01-19T05:54:42.274Z,8.03
2018-01-19T05:57:09.807Z,8.30
2018-01-19T05:59:37.311Z,7.83
2018-01-19T06:02:04.835Z,8.13
2018-01-19T06:04:32.388Z,7.20
2018-01-19T06:06:59.908Z,7.43
2018-01-19T06:09:27.587Z,7.67
2018-01-19T06:11:55.127Z,7.90
2018-01-19T06:14:23.125Z,8.10
2018-01-19T06:16:50.706Z,8.23
2018-01-19T06:19:18.290Z,7.70
2018-01-19T06:21:45.828Z,7.43
2018-01-19T06:24:13.365Z,8.17
2018-01-19T06:26:41.643Z,7.93
2018-01-19T06:29:09.167Z,8.03
2018-01-19T06:31:36.670Z,7.10
2018-01-19T06:34:04.195Z,7.90
2018-01-19T06:36:32.101Z,6.65
2018-01-19T06:38:59.631Z,6.70
2018-01-19T06:41:27.179Z,6.72
2018-01-19T06:43:54.723Z,7.73
2018-01-19T06:46:22.262Z,7.68
2018-01-19T06:48:49.813Z,8.00
2018-01-19T06:51:17.327Z,7.30
2018-01-19T06:53:44.877Z,7.80
2018-01-19T06:56:12.387Z,7.33
2018-01-19T06:58:40.660Z,8.00
2018-01-19T07:01:09.022Z,8.63
2018-01-19T07:03:37.299Z,8.23
2018-01-19T07:06:04.862Z,7.73
2018-01-19T07:08:33.039Z,8.18
2018-01-19T07:11:00.669Z,8.20
2018-01-19T07:13:28.213Z,9.52
2018-01-19T07:15:55.745Z,9.97
2018-01-19T07:18:23.540Z,9.10
2018-01-19T07:20:51.145Z,7.77
2018-01-19T07:23:18.656Z,8.63
2018-01-19T07:25:46.972Z,8.17
2018-01-19T07:28:14.485Z,7.20
2018-01-19T07:30:42.041Z,7.70
2018-01-19T07:33:09.561Z,9.33
2018-01-19T07:35:37.091Z,8.20
2018-01-19T07:38:05.474Z,8.38
2018-01-19T07:43:12.222Z,9.13
2018-01-19T07:45:40.835Z,8.97
2018-01-19T07:48:08.415Z,7.77
2018-01-19T07:50:35.924Z,9.65
2018-01-19T07:53:03.451Z,8.60
2018-01-19T07:55:30.963Z,9.02
2018-01-19T07:57:59.275Z,9.00
2018-01-19T08:00:26.802Z,9.80
2018-01-19T08:02:54.539Z,9.48
2018-01-19T08:05:22.559Z,10.10
2018-01-19T08:07:50.107Z,9.20
2018-01-19T08:10:18.391Z,9.93
2018-01-19T08:12:45.930Z,9.93
2018-01-19T08:15:14.211Z,9.98
2018-01-19T08:17:41.753Z,10.17
2018-01-19T08:20:09.299Z,8.53
2018-01-19T08:22:36.878Z,9.80
2018-01-19T08:25:04.394Z,8.60
2018-01-19T08:27:31.911Z,9.47
2018-01-19T08:30:00.199Z,8.97
2018-01-19T08:32:27.760Z,9.20
2018-01-19T08:34:55.291Z,9.43
2018-01-19T08:37:22.984Z,9.57
2018-01-19T08:39:51.056Z,9.70
2018-01-19T08:42:18.607Z,9.80
2018-01-19T08:44:46.903Z,9.90
2018-01-19T08:47:14.430Z,8.07
2018-01-19T08:49:41.977Z,9.00
2018-01-19T08:52:09.503Z,8.47
2018-01-19T08:54:37.794Z,9.30
2018-01-19T08:57:05.309Z,8.73
2018-01-19T08:59:33.715Z,8.67
2018-01-19T09:02:01.296Z,8.90
2018-01-19T09:04:28.846Z,8.10
2018-01-19T09:06:56.707Z,9.57
2018-01-19T09:09:26.788Z,9.10
2018-01-19T09:11:54.320Z,8.90
2018-01-19T09:14:21.945Z,8.80
2018-01-19T09:16:49.476Z,8.30
2018-01-19T09:19:17.007Z,9.43
2018-01-19T09:21:44.541Z,9.03
2018-01-19T09:24:12.080Z,8.77
2018-01-19T09:26:40.371Z,7.90
2018-01-19T09:29:07.929Z,8.53
2018-01-19T09:31:35.474Z,10.13
2018-01-19T09:34:03.329Z,9.37
2018-01-19T09:36:30.855Z,9.37
2018-01-19T09:38:58.526Z,8.27
2018-01-19T09:41:26.851Z,8.77
2018-01-19T09:43:54.440Z,9.77
2018-01-19T09:46:21.997Z,7.70
2018-01-19T09:48:49.515Z,8.53
2018-01-19T09:51:17.151Z,9.40
2018-01-19T09:53:44.660Z,8.77
2018-01-19T09:56:13.951Z,8.60
2018-01-19T09:58:41.471Z,8.47
2018-01-19T10:01:08.994Z,9.07
2018-01-19T10:03:38.955Z,9.50
2018-01-19T10:06:06.476Z,9.43
2018-01-19T10:08:34.771Z,8.97
2018-01-19T10:11:02.288Z,9.97
2018-01-19T10:13:30.691Z,9.30
2018-01-19T10:15:58.207Z,9.33
2018-01-19T10:18:25.813Z,9.63
2018-01-19T10:20:54.539Z,9.70
2018-01-19T10:23:23.140Z,9.63
2018-01-19T10:25:50.666Z,8.33
2018-01-19T10:28:18.203Z,9.80
2018-01-19T10:30:45.727Z,9.87
2018-01-19T10:33:13.255Z,9.80
2018-01-19T10:35:41.535Z,10.17
2018-01-19T10:38:09.069Z,9.90
2018-01-19T10:40:36.754Z,9.77
2018-01-19T10:43:04.323Z,9.80
2018-01-19T10:45:32.607Z,10.43
2018-01-19T10:48:01.040Z,10.20
2018-01-19T10:50:28.966Z,10.67
2018-01-19T10:52:57.416Z,9.57
2018-01-19T10:55:25.004Z,9.95
2018-01-19T10:57:52.619Z,11.10
2018-01-19T11:00:20.148Z,8.07
2018-01-19T11:02:47.656Z,7.87
2018-01-19T11:05:15.200Z,10.25
2018-01-19T11:07:42.726Z,10.90
2018-01-19T11:10:10.363Z,10.50
2018-01-19T11:12:37.894Z,10.63
2018-01-19T11:15:05.584Z,10.00
2018-01-19T11:17:33.854Z,10.00
2018-01-19T11:20:02.143Z,9.70
2018-01-19T11:22:29.695Z,10.65
2018-01-19T11:24:57.242Z,10.87
2018-01-19T11:27:24.755Z,10.05
2018-01-19T11:29:53.063Z,7.90
2018-01-19T11:32:20.581Z,12.03
2018-01-19T11:34:48.174Z,10.57
2018-01-19T11:37:15.698Z,10.97
2018-01-19T11:39:43.241Z,10.37
2018-01-19T11:42:10.863Z,10.40
2018-01-19T11:44:38.427Z,9.87
2018-01-19T11:47:05.937Z,11.40
2018-01-19T11:49:34.215Z,11.43
2018-01-19T11:52:01.767Z,12.87
2018-01-19T11:54:29.304Z,10.70
2018-01-19T11:56:56.891Z,12.40
2018-01-19T11:59:24.433Z,12.63
2018-01-19T12:01:51.981Z,14.02
2018-01-19T12:04:19.522Z,12.20
2018-01-19T12:06:47.093Z,12.40
2018-01-19T12:09:14.693Z,12.47
2018-01-19T12:11:42.239Z,13.30
2018-01-19T12:14:09.819Z,11.60
2018-01-19T12:16:37.428Z,13.47
2018-01-19T12:19:04.972Z,13.57
2018-01-19T12:21:32.509Z,13.80
2018-01-19T12:24:00.073Z,15.90
2018-01-19T12:26:27.611Z,15.00
2018-01-19T12:28:55.462Z,15.47
2018-01-19T12:31:23.105Z,14.00
2018-01-19T12:33:50.729Z,12.73
2018-01-19T12:36:18.370Z,13.67
2018-01-19T12:38:45.978Z,13.93
2018-01-19T12:41:13.499Z,14.67
2018-01-19T12:43:41.028Z,16.20
2018-01-19T12:46:09.136Z,13.87
2018-01-19T12:48:37.461Z,13.10
2018-01-19T12:51:04.975Z,12.10
2018-01-19T12:53:32.542Z,13.23
2018-01-19T12:56:00.113Z,13.17
2018-01-19T12:58:27.652Z,12.67
2018-01-19T13:00:55.184Z,13.03
2018-01-19T13:03:22.889Z,12.57
2018-01-19T13:05:51.236Z,11.57
2018-01-19T13:08:18.779Z,13.02
2018-01-19T13:10:47.073Z,12.97
2018-01-19T13:13:14.600Z,14.90
2018-01-19T13:15:43.688Z,13.25
2018-01-19T13:18:11.220Z,12.17
2018-01-19T13:20:39.497Z,14.47
2018-01-19T13:23:07.048Z,13.20
2018-01-19T13:25:34.689Z,14.63
2018-01-19T13:28:02.199Z,13.83
2018-01-19T13:30:29.723Z,12.30
2018-01-19T13:32:57.249Z,13.10
2018-01-19T13:35:24.807Z,14.27
2018-01-19T13:37:52.351Z,13.53
2018-01-19T13:40:19.898Z,13.80
2018-01-19T13:42:47.434Z,12.47
2018-01-19T13:45:14.963Z,13.13
2018-01-19T13:47:43.412Z,11.83
2018-01-19T13:50:10.952Z,11.80
2018-01-19T13:52:38.524Z,11.87
2018-01-19T13:55:06.061Z,12.80
2018-01-19T13:57:33.622Z,13.63
2018-01-19T14:00:01.148Z,11.57
2018-01-19T14:02:28.670Z,14.00
2018-01-19T14:04:56.238Z,13.70
2018-01-19T14:07:23.891Z,11.80
2018-01-19T14:09:51.481Z,12.30
2018-01-19T14:12:19.080Z,12.15
2018-01-19T14:14:46.825Z,12.77
2018-01-19T14:17:14.390Z,12.80
2018-01-19T14:19:41.899Z,12.60
2018-01-19T14:22:09.427Z,12.37
2018-01-19T14:24:36.939Z,12.60
2018-01-19T14:27:04.472Z,13.03
2018-01-19T14:29:31.983Z,12.27
2018-01-19T14:31:59.524Z,13.10
2018-01-19T14:34:27.051Z,11.90
2018-01-19T14:36:54.611Z,12.80
2018-01-19T14:39:23.475Z,12.23
2018-01-19T14:41:51.009Z,11.70
2018-01-19T14:44:18.577Z,13.77
2018-01-19T14:46:46.111Z,12.10
2018-01-19T14:49:13.635Z,11.70
2018-01-19T14:51:41.964Z,13.67
2018-01-19T14:54:09.477Z,12.90
2018-01-19T14:56:37.001Z,11.63
2018-01-19T14:59:04.612Z,11.88
2018-01-19T15:01:32.951Z,11.03
2018-01-19T15:04:00.499Z,11.15
2018-01-19T15:06:28.012Z,11.83
2018-01-19T15:08:55.629Z,12.23
2018-01-19T15:11:24.555Z,12.10
2018-01-19T15:13:52.253Z,12.00
2018-01-19T15:16:20.559Z,11.97
2018-01-19T15:18:48.136Z,12.10
2018-01-19T15:21:15.660Z,11.83
2018-01-19T15:23:43.195Z,11.10
2018-01-19T15:26:10.730Z,10.90
2018-01-19T15:28:38.246Z,12.00
2018-01-19T15:31:06.026Z,11.07
2018-01-19T15:33:33.551Z,10.20
2018-01-19T15:36:01.370Z,10.20
2018-01-19T15:38:29.702Z,11.60
2018-01-19T15:40:57.351Z,11.57
2018-01-19T15:43:25.302Z,9.60
2018-01-19T15:45:54.414Z,10.47
2018-01-19T15:48:22.703Z,9.35
2018-01-19T15:50:50.239Z,9.03
2018-01-19T15:53:17.758Z,10.13
2018-01-19T15:55:46.052Z,10.17
2018-01-19T15:58:13.577Z,9.93
2018-01-19T16:00:41.922Z,8.70
2018-01-19T16:03:10.223Z,8.95
2018-01-19T16:05:37.757Z,9.20
2018-01-19T16:08:05.380Z,9.10
2018-01-19T16:10:32.891Z,9.07
2018-01-19T16:13:00.525Z,9.50
2018-01-19T16:15:28.049Z,9.50
2018-01-19T16:17:55.639Z,10.20
2018-01-19T16:20:23.679Z,8.90
2018-01-19T16:22:52.451Z,9.73
2018-01-19T16:25:20.039Z,8.90
2018-01-19T16:27:48.191Z,9.20
2018-01-19T16:30:15.712Z,8.60
2018-01-19T16:32:43.269Z,8.27
2018-01-19T16:35:10.778Z,8.40
2018-01-19T16:37:38.311Z,9.20
2018-01-19T16:40:05.846Z,6.27
2018-01-19T16:42:33.392Z,9.13
2018-01-19T16:45:00.904Z,8.53
2018-01-19T16:47:28.473Z,8.07
2018-01-19T16:49:55.982Z,8.60
2018-01-19T16:52:24.406Z,8.23
2018-01-19T16:54:51.955Z,9.37
2018-01-19T16:57:19.473Z,10.33
2018-01-19T16:59:47.027Z,9.13
2018-01-19T17:02:14.594Z,8.90
2018-01-19T17:04:42.123Z,12.50
2018-01-19T17:07:09.632Z,14.63
2018-01-19T17:09:37.202Z,10.50
2018-01-19T17:12:04.735Z,10.17
2018-01-19T17:14:32.268Z,12.35
2018-01-19T17:17:00.548Z,12.60
2018-01-19T17:19:28.106Z,11.63
2018-01-19T17:21:56.627Z,13.87
2018-01-19T17:24:25.007Z,12.80
2018-01-19T17:26:52.552Z,12.20
2018-01-19T17:29:20.868Z,11.83
2018-01-19T17:31:48.426Z,10.57
2018-01-19T17:34:15.996Z,14.60
2018-01-19T17:36:44.275Z,12.83
2018-01-19T17:39:11.830Z,13.32
2018-01-19T17:41:39.348Z,12.97
2018-01-19T17:44:07.689Z,11.38
2018-01-19T17:46:35.211Z,10.63
2018-01-19T17:49:02.737Z,10.95
2018-01-19T17:51:30.281Z,9.65
2018-01-19T17:53:58.760Z,12.65
2018-01-19T17:56:26.701Z,11.27
2018-01-19T17:58:54.375Z,14.53
2018-01-19T18:01:21.931Z,11.17
2018-01-19T18:03:50.463Z,11.77
2018-01-19T18:06:18.047Z,12.30
2018-01-19T18:08:47.024Z,11.05
2018-01-19T18:11:16.061Z,10.60
2018-01-19T18:13:43.713Z,11.83
2018-01-19T18:16:11.244Z,10.87
2018-01-19T18:18:38.761Z,12.10
2018-01-19T18:21:06.348Z,12.67
2018-01-19T18:23:33.880Z,14.83
2018-01-19T18:26:01.411Z,14.70
2018-01-19T18:28:28.967Z,10.40
2018-01-19T18:30:56.626Z,10.00
2018-01-19T18:33:24.431Z,9.23
2018-01-19T18:35:51.991Z,9.97
2018-01-19T18:38:19.507Z,9.20
2018-01-19T18:40:47.011Z,9.97
2018-01-19T18:43:14.550Z,9.53
2018-01-19T18:45:42.067Z,10.03
2018-01-19T18:48:09.615Z,10.10
2018-01-19T18:50:37.127Z,8.73
2018-01-19T18:53:04.667Z,11.50
2018-01-19T18:55:32.169Z,9.43
2018-01-19T18:57:59.720Z,10.23
2018-01-19T19:00:27.255Z,9.77
2018-01-19T19:02:54.844Z,9.20
2018-01-19T19:05:22.664Z,9.97
2018-01-19T19:07:50.234Z,10.67
2018-01-19T19:10:17.761Z,12.40
2018-01-19T19:12:45.284Z,12.30
2018-01-19T19:15:12.795Z,12.75
2018-01-19T19:17:40.310Z,13.00
2018-01-19T19:20:07.839Z,12.70
2018-01-19T19:22:35.412Z,13.43
2018-01-19T19:25:03.710Z,12.80
2018-01-19T19:27:31.658Z,14.33
2018-01-19T19:29:59.332Z,14.85
2018-01-19T19:32:27.072Z,13.57
2018-01-19T19:34:55.135Z,15.07
2018-01-19T19:37:23.003Z,13.33
2018-01-19T19:39:50.614Z,16.47
2018-01-19T19:42:18.883Z,14.80
2018-01-19T19:44:46.497Z,13.47
2018-01-19T19:47:14.807Z,14.50
2018-01-19T19:49:42.336Z,14.17
2018-01-19T19:52:09.862Z,15.43
2018-01-19T19:54:37.433Z,15.90
2018-01-19T19:57:04.974Z,14.95
2018-01-19T19:59:32.583Z,16.13
2018-01-19T20:02:00.134Z,16.90
2018-01-19T20:04:27.670Z,15.60
2018-01-19T20:06:55.955Z,15.23
2018-01-19T20:09:23.523Z,15.00
2018-01-19T20:11:51.084Z,16.17
2018-01-19T20:14:18.650Z,16.60
2018-01-19T20:16:46.190Z,16.33
2018-01-19T20:19:13.713Z,16.03
2018-01-19T20:21:41.264Z,17.97
2018-01-19T20:24:08.792Z,16.57
2018-01-19T20:26:36.324Z,17.13
2018-01-19T20:29:03.869Z,17.17
2018-01-19T20:31:31.399Z,18.13
2018-01-19T20:33:58.968Z,19.00
2018-01-19T20:36:26.509Z,19.30
2018-01-19T20:38:56.913Z,19.87
2018-01-19T20:41:25.171Z,19.20
2018-01-19T20:43:52.742Z,20.57
2018-01-19T20:46:20.352Z,20.10
2018-01-19T20:48:47.867Z,18.40
2018-01-19T20:51:16.158Z,20.10
2018-01-19T20:53:43.672Z,19.80
2018-01-19T20:56:11.257Z,20.65
2018-01-19T20:58:38.763Z,18.80
2018-01-19T21:01:07.094Z,19.57
2018-01-19T21:03:34.636Z,19.13
2018-01-19T21:06:02.181Z,19.12
2018-01-19T21:08:29.753Z,20.62
2018-01-19T21:10:58.035Z,19.33
2018-01-19T21:13:25.610Z,20.33
2018-01-19T21:15:53.163Z,19.97
2018-01-19T21:18:20.739Z,21.03
2018-01-19T21:20:48.353Z,18.40
2018-01-19T21:23:16.018Z,20.07
2018-01-19T21:25:45.143Z,20.20
2018-01-19T21:28:12.695Z,19.70
2018-01-19T21:30:40.222Z,19.90
2018-01-19T21:33:07.764Z,19.73
2018-01-19T21:35:35.305Z,21.00
2018-01-19T21:38:03.583Z,20.87
2018-01-19T21:40:31.129Z,20.47
2018-01-19T21:42:58.647Z,21.23
2018-01-19T21:45:26.975Z,21.37
2018-01-19T21:47:54.561Z,19.77
2018-01-19T21:50:22.756Z,20.02
2018-01-19T21:52:50.287Z,21.87
2018-01-19T21:55:17.913Z,21.63
2018-01-19T21:57:45.445Z,21.00
2018-01-19T22:00:13.759Z,22.00
2018-01-19T22:02:41.277Z,22.30
2018-01-19T22:05:09.727Z,21.67
2018-01-19T22:07:38.073Z,21.77
2018-01-19T22:10:05.631Z,22.00
2018-01-19T22:12:33.915Z,22.40
2018-01-19T22:15:01.443Z,21.83
2018-01-19T22:17:29.725Z,21.57
2018-01-19T22:19:58.543Z,20.80
2018-01-19T22:22:26.136Z,20.50
2018-01-19T22:24:53.791Z,21.47
2018-01-19T22:27:21.323Z,21.63
2018-01-19T22:29:48.864Z,20.87
2018-01-19T22:32:17.612Z,22.13
2018-01-19T22:34:45.136Z,20.77
2018-01-19T22:37:14.205Z,20.30
2018-01-19T22:39:41.719Z,22.93
2018-01-19T22:42:09.262Z,21.90
2018-01-19T22:44:36.782Z,22.87
2018-01-19T22:47:05.075Z,21.87
2018-01-19T22:49:32.583Z,21.70
2018-01-19T22:52:00.935Z,22.50
2018-01-19T22:54:29.874Z,20.57
2018-01-19T22:56:57.515Z,21.00
2018-01-19T22:59:25.101Z,22.13
2018-01-19T23:01:52.743Z,22.40
2018-01-19T23:04:21.052Z,20.20
2018-01-19T23:06:48.675Z,21.20
2018-01-19T23:09:17.179Z,19.80
2018-01-19T23:11:44.707Z,22.67
2018-01-19T23:14:12.255Z,22.62
2018-01-19T23:16:39.811Z,19.17
2018-01-19T23:19:07.425Z,21.33
2018-01-19T23:21:35.696Z,20.40
2018-01-19T23:24:03.242Z,20.03
2018-01-19T23:26:30.826Z,20.33
2018-01-19T23:28:58.561Z,20.70
2018-01-19T23:31:26.217Z,21.53
2018-01-19T23:33:54.067Z,20.33
2018-01-19T23:36:21.743Z,21.00
2018-01-19T23:38:49.287Z,18.93
2018-01-19T23:41:16.819Z,20.70
2018-01-19T23:43:44.360Z,17.50
2018-01-19T23:46:11.870Z,20.63
2018-01-19T23:48:39.398Z,19.37
2018-01-19T23:51:06.915Z,20.07
2018-01-19T23:53:34.440Z,19.73
2018-01-19T23:56:02.066Z,20.00
2018-01-19T23:58:29.592Z,19.57
